Aviation Digital Data Service (ADDS)

Output produced by METARs form (0434 UTC 18 October 2018)
found at http://aviationweather.gov/metar/data/
 
CYYZ 180417Z 27013G18KT 15SM FEW045 BKN078 02/M02 A3025 RMK CF2AC3 SLP251
CYYZ 180400Z 27012G19KT 15SM FEW052 BKN070 03/M02 A3024 RMK SC2AC4 SLP248
CYYZ 180300Z 28011KT 15SM BKN051 BKN082 03/M01 A3022 RMK SC5AC1 SLP242
CYYZ 180200Z 25012KT 15SM SCT052 BKN095 02/M01 A3020 RMK SC4AC1 SLP233
TAF CYYZ 180244Z 1803/1906 28013KT P6SM FEW060 
     TEMPO 1803/1805 P6SM -SHRASN BKN060 
     FM180500 31010KT P6SM SCT060 
     BECMG 1812/1814 25008KT 
     FM181500 25008KT P6SM BKN040 
     BECMG 1816/1818 27015KT 
     FM190000 24012KT P6SM FEW050 RMK NXT FCST BY 180600Z
       
CYKF 180432Z AUTO 30014G22KT 9SM -RASN -UP FEW011 OVC050 01/M01 A3027 RMK SLP262
CYKF 180429Z AUTO 30013G22KT 9SM -RASN FEW011 BKN046 OVC055 01/M01 A3027 RMK SLP262
CYKF 180426Z AUTO 31015G22KT 9SM -RA SCT013 OVC048 01/M01 A3027 RMK SLP262
CYKF 180423Z AUTO 31011G22KT 9SM -RA -UP SCT013 SCT018 OVC048 01/M01 A3027 RMK SLP262
CYKF 180420Z AUTO 31013G22KT 9SM -SN -UP SCT013 SCT018 BKN044 OVC055 01/M01 A3027 RMK SLP262
CYKF 180417Z AUTO 30011G24KT 8SM -SN -UP SCT013 BKN018 BKN044 OVC055 01/M01 A3027 RMK SLP262
CYKF 180414Z AUTO 31014G24KT 6SM -SN SCT013 BKN018 BKN024 OVC055 01/M01 A3027 RMK SLP262
CYKF 180408Z AUTO 31011G16KT 6SM -RASN BKN015 OVC020 01/M00 A3027 RMK SLP262
CYKF 180405Z AUTO 32008KT 9SM -RA BKN015 OVC020 01/00 A3027 RMK SLP262
CYKF 180400Z AUTO 30009KT 9SM BKN015 BKN020 OVC025 01/00 A3027 RMK SLP261
CYKF 180314Z AUTO 29010KT 9SM SCT011 BKN016 BKN029 01/00 A3024 RMK SLP253
CYKF 180300Z AUTO 29008KT 9SM -RA BKN011 OVC017 01/00 A3024 RMK SLP252
CYKF 180223Z AUTO 28010KT 9SM -RA SCT014 BKN024 OVC034 01/00 A3022 RMK SLP245
CYKF 180215Z AUTO 29007KT 9SM -RA FEW012 SCT017 BKN026 BKN034 01/M00 A3022 RMK SLP245
CYKF 180213Z AUTO 28008KT 9SM -RA FEW012 SCT017 BKN023 BKN030 01/M00 A3022 RMK SLP245
CYKF 180207Z AUTO 28009KT 9SM SCT017 BKN023 BKN028 01/M00 A3022 RMK SLP244
CYKF 180200Z AUTO 28010KT 9SM FEW023 SCT028 01/M00 A3022 RMK SLP244
TAF CYKF 180138Z 1802/1814 29012KT P6SM FEW030 BKN050 
     TEMPO 1802/1805 4SM -SHRASN BKN020 BKN050 
     PROB30 1802/1805 2SM -SHSN OVC020 
     FM180500 31010KT P6SM BKN030 
     FM181200 27008KT P6SM OVC030 
     TEMPO 1812/1814 3SM -SHSN OVC020 RMK FCST BASED ON AUTO OBS. NXT FCST BY
180800Z
       
CYBN 180416Z AUTO 00000KT 3/8SM -UP VV003 M00/M01 A3026
CYBN 180415Z AUTO 00000KT 3/8SM -UP VV001 M00/M01 A3025
CYBN 180400Z AUTO 34005KT 320V040 1/4SM SN VV001 M00/M01 A3026 RMK PCPN 0.5MM PAST HR SLP255
CYBN 180344Z AUTO 02010G18KT 3/8SM -SN VV001 M00/M01 A3025
CYBN 180343Z AUTO 01010G18KT 1/2SM -SN VV001 M00/M01 A3024
CYBN 180341Z AUTO 01011G21KT 5/8SM -SN VV002 M00/M02 A3024
CYBN 180339Z AUTO 02014G21KT 330V040 5/8SM -SN VV003 M00/M01 A3024
CYBN 180337Z AUTO 01016G21KT 330V040 3/4SM -SN VV003 M00/M01 A3024
CYBN 180334Z AUTO 01013G21KT 320V030 1 1/4SM -SN VV003 00/M01 A3024
CYBN 180333Z AUTO 01015G21KT 320V030 1 3/4SM -SN VV004 00/M01 A3024
CYBN 180332Z AUTO 01014G21KT 320V030 2 1/4SM -SN VV005 00/M01 A3024 RMK VSBY VRBL 0.9V9.+
CYBN 180330Z AUTO 35012G18KT 320V030 5SM -SN OVC008 OVC067 01/M01 A3024
CYBN 180325Z AUTO 01009KT 320V040 9SM BKN008 OVC023 OVC054 OVC067 01/M01 A3023
CYBN 180300Z AUTO 34010KT 300V010 9SM OVC023 OVC069 OVC079 03/M02 A3021 RMK SLP239
CYBN 180246Z AUTO 32009KT 300V360 9SM OVC023 OVC069 OVC079 03/M02 A3020
CYBN 180233Z AUTO 34012G18KT 270V360 9SM -RA BKN023 OVC069 OVC079 OVC088 03/M03 A3020
CYBN 180223Z AUTO 30010G15KT 260V320 9SM -RA SCT031 BKN069 BKN088 03/M04 A3019
CYBN 180200Z AUTO 28008KT 9SM FEW067 BKN080 02/M03 A3017 RMK SLP225
TAF AMD CYBN 180337Z 1803/1812 34010KT 6SM -SHSN OVC030 
     TEMPO 1803/1810 3/4SM -SHSN VV003 
     FM181000 VRB03KT 6SM -SHSN OVC030 RMK FCST BASED ON AUTO OBS. NXT FCST BY
180600Z
       
CYXU 180400Z 31012G20KT 15SM OVC040 03/M01 A3031 RMK SC8 SLP273
CYXU 180300Z 31007KT 15SM BKN051 01/00 A3029 RMK SC6 SLP267
CYXU 180200Z 32009G21KT 4SM -SHRASN FEW005 OVC045 02/00 A3027 RMK SF1SC7 CVCTV CLD EMBD PRESRR SLP260
CYXU 180139Z 35008G15KT 12SM -SHRASN OVC050 03/00 A3025 RMK SC8 CVCTV CLD EMBD SLP253
TAF CYXU 172338Z 1800/1824 28012KT P6SM BKN050 
     TEMPO 1800/1803 2SM -SHRASN OVC020 
     FM180300 32008KT P6SM BKN025 
     FM180800 32005KT 6SM -SHSN BKN020 OVC040 
     PROB30 1808/1812 11/2SM -SN OVC010 
     FM181200 VRB03KT P6SM BKN020 
     BECMG 1815/1817 28012KT 
     FM181700 28012KT P6SM BKN040 
     FM182000 25010KT P6SM FEW050 RMK NXT FCST BY 180600Z
       
CYHM 180400Z 26007KT 15SM FEW015 BKN064 02/01 A3028 RMK CF2SC4 SLP261
CYHM 180300Z 26010KT 15SM BKN031 BKN045 02/01 A3026 RMK SC5SC2 SLP255
CYHM 180200Z 26005KT 15SM FEW017 FEW050 FEW090 01/00 A3023 RMK CF1SC1AC1 CF TR SLP247
TAF CYHM 172338Z 1800/1824 28013G23KT P6SM FEW020 BKN050 
     TEMPO 1800/1803 6SM -SHRASN BKN020 BKN050 
     BECMG 1801/1803 31010KT 
     FM180300 31010KT P6SM BKN050 
     FM180700 31008KT P6SM FEW050 
     FM181500 27010KT P6SM BKN040 
     FM182300 25010KT P6SM SCT040 RMK NXT FCST BY 180600Z
       
CYQA 180400Z AUTO 30009KT 9SM CLR M01/M08 A3020 RMK SLP240
CYQA 180300Z AUTO 30008KT 9SM CLR M01/M08 A3016 RMK SLP228
CYQA 180200Z AUTO 32010G17KT 9SM CLR 00/M09 A3013 RMK SLP217
TAF CYQA 171938Z 1720/1802 31015G25KT P6SM SCT040 
     TEMPO 1720/1722 P6SM -SHRA BKN040 
     FM172200 30015G25KT P6SM SCT040 
     BECMG 1722/1724 31010KT RMK FCST BASED ON AUTO OBS. NXT FCST WILL BE ISSUED
AT 181145Z
       
CYVV 180400Z 31006KT 280V350 15SM FEW015 BKN050 02/M04 A3027 RMK SC1SC6 SLP261
CYVV 180300Z 31009G15KT 270V340 15SM FEW015 BKN035 02/M02 A3025 RMK SC1SC6 SLP252
CYVV 180249Z 31007KT 270V360 15SM FEW015 BKN035 02/M01 A3024 RMK SC1SC6 SLP250
CYVV 180227Z 31007G21KT 280V360 12SM -SHSN BKN035 02/M01 A3022 RMK SC5 CVCTV CLD EMBD SLP245
CYVV 180222Z 32009G18KT 300V360 5SM -SHGS BKN035 02/M02 A3022 RMK SC5 SLP244
CYVV 180208Z 32011G26KT 290V360 15SM SCT035 02/M03 A3021 RMK SC3 SLP241
CYVV 180200Z 31011G18KT 290V350 12SM -SHSN BKN030 03/M03 A3021 RMK SC7 CVCTV CLD EMBD SLP240
TAF CYVV 171943Z 1720/1723 29012G22KT P6SM SCT020 
     TEMPO 1720/1723 5SM -SHRA BR OVC020 RMK NXT FCST WILL BE ISSUED AT 181045Z
       
CYZR 180400Z AUTO 32017G27KT 9SM FEW039 OVC060 04/M03 A3038 RMK SLP294
CYZR 180300Z AUTO 32019G25KT 9SM SCT034 BKN065 05/M02 A3035 RMK SLP283
CYZR 180200Z AUTO 33020G28KT 9SM FEW034 BKN055 OVC072 05/M01 A3032 RMK SLP274
CYZR 180155Z AUTO 31019G27KT 9SM BKN055 OVC071 06/M02 A3031 RMK SLP271
TAF CYZR 171943Z 1720/1802 31012G22KT P6SM SCT050 
     TEMPO 1720/1802 BKN050 RMK FCST BASED ON AUTO OBS. NXT FCST WILL BE ISSUED
AT 180745Z
       
CYPQ 180400Z AUTO 32008KT 9SM BKN075 00/M05 A3020 RMK SLP234
CYPQ 180300Z AUTO 29005KT 9SM BKN080 OVC091 00/M02 A3017 RMK SLP225
CYPQ 180200Z AUTO 30008KT 9SM BKN065 BKN092 01/M02 A3014 RMK SLP215
TAF CYPQ 171938Z 1720/1802 30015G25KT P6SM BKN040 
     TEMPO 1720/1801 6SM -SHRA BR 
     FM180100 30010G20KT P6SM BKN050 
     TEMPO 1801/1802 P6SM -SHRASN RMK FCST BASED ON AUTO OBS. NXT FCST WILL BE
ISSUED AT 180945Z
       
CWLS 180400Z AUTO 33009G15KT 00/M01 RMK AO1 3027 SLP260 T00001011 50005
CWLS 180300Z AUTO 29007KT M00/M00 RMK AO1 3PAST HR 1026 PK WND 30017/0222 SLP249 P0001 T10011002 50005
CWLS 180200Z AUTO 31009KT M00/M00 RMK AO1 2PAST HR 3024 PK WND 30018/0132 SLP241 P0001 T10011003 50002
CWCO 180400Z AUTO 32012G25KT 02/01 RMK AO1 5PAST HR 1035 PK WND 35027/0304 SLP249 P0010 T00240011 50029
CWCO 180300Z AUTO 36017G25KT 02/M00 RMK AO1 4PAST HR 3033 PK WND 34026/0202 SLP242 P0002 T00181003 50004
CWCO 180200Z AUTO 34023G32KT 05/01 RMK AO1 PK WND 34032/0155 SLP223 T00460013 53026